Time;durP1;ratioP1;P1;durP2;ratioP2;P2;SDS_P1;SDS_P2;PMS_P1;PMS_P2;Temp;Humidity;BMP_temperature;BMP_pressure;BME280_temperature;BME280_humidity;BME280_pressure;Samples;Min_cycle;Max_cycle;Signal;HPM_P1;HPM_P2
2022/02/25 00:00:31;;;;;;;;;1.00;0.75;;;;;-147.17;100.00;59696.56;5006934;28;51111;-59
2022/02/25 00:02:57;;;;;;;;;2.25;2.00;;;;;-147.17;100.00;59696.56;5004275;28;51231;-60
2022/02/25 00:05:22;;;;;;;;;1.00;1.00;;;;;-147.17;100.00;59696.56;5008099;28;51393;-59
2022/02/25 00:07:51;;;;;;;;;0.25;0.25;;;;;-147.17;100.00;59696.56;5006222;28;52213;-60
2022/02/25 00:10:17;;;;;;;;;1.50;1.50;;;;;-147.17;100.00;59696.56;5019287;28;52349;-60
2022/02/25 00:12:43;;;;;;;;;0.25;0.25;;;;;-147.17;100.00;59696.56;5008337;28;51180;-59
2022/02/25 00:15:08;;;;;;;;;1.25;0.00;;;;;-147.17;100.00;59696.56;5002663;28;51196;-59
2022/02/25 00:17:34;;;;;;;;;1.75;1.00;;;;;-147.17;100.00;59696.56;4985171;28;52901;-59
2022/02/25 00:19:59;;;;;;;;;1.00;0.00;;;;;-147.17;100.00;59696.56;5004046;28;51262;-60
2022/02/25 00:22:25;;;;;;;;;0.25;0.25;;;;;-147.17;100.00;59696.56;5005739;28;51204;-59
2022/02/25 00:24:50;;;;;;;;;0.25;0.25;;;;;-147.17;100.00;59696.56;5004474;28;52560;-60
2022/02/25 00:27:16;;;;;;;;;1.50;1.00;;;;;-147.17;100.00;59696.56;5009078;28;51163;-59
2022/02/25 00:29:41;;;;;;;;;1.00;1.00;;;;;-147.17;100.00;59696.56;5004616;28;51147;-58
2022/02/25 00:32:07;;;;;;;;;1.25;1.00;;;;;-147.17;100.00;59696.56;5004499;28;51188;-59
2022/02/25 00:34:32;;;;;;;;;1.00;1.00;;;;;-147.17;100.00;59696.56;5002592;28;51132;-60
2022/02/25 00:36:58;;;;;;;;;2.00;0.00;;;;;-147.17;100.00;59696.56;5004163;28;51795;-59
2022/02/25 00:39:23;;;;;;;;;1.50;1.00;;;;;-147.17;100.00;59696.56;5004421;28;51210;-59
2022/02/25 00:41:49;;;;;;;;;1.00;1.00;;;;;-147.17;100.00;59696.56;5003976;28;51080;-58
2022/02/25 00:44:14;;;;;;;;;1.00;1.00;;;;;-147.17;100.00;59696.56;5003096;28;51031;-59
2022/02/25 00:46:40;;;;;;;;;1.50;1.00;;;;;-147.17;100.00;59696.56;5005861;28;51897;-59
2022/02/25 00:49:05;;;;;;;;;1.00;0.00;;;;;-147.17;100.00;59696.56;4999609;28;51130;-59
2022/02/25 00:51:30;;;;;;;;;1.00;1.00;;;;;-147.17;100.00;59696.56;5002115;28;51120;-60
2022/02/25 00:53:56;;;;;;;;;1.25;1.00;;;;;-147.17;100.00;59696.56;5001850;28;51351;-59
2022/02/25 00:56:21;;;;;;;;;1.00;0.25;;;;;-147.17;100.00;59696.56;4999411;28;52327;-61
2022/02/25 00:58:47;;;;;;;;;1.00;1.00;;;;;-147.17;100.00;59696.56;5007510;28;51135;-59
2022/02/25 01:01:13;;;;;;;;;1.00;1.00;;;;;-147.17;100.00;59696.56;5000176;28;51287;-58
2022/02/25 01:03:38;;;;;;;;;3.00;1.50;;;;;-147.17;100.00;59696.56;5005962;28;51458;-58
2022/02/25 01:06:04;;;;;;;;;1.00;1.00;;;;;-147.17;100.00;59696.56;5011067;28;51548;-60
2022/02/25 01:08:29;;;;;;;;;1.50;1.00;;;;;-147.17;100.00;59696.56;5012999;28;51085;-60
2022/02/25 01:10:55;;;;;;;;;1.00;1.00;;;;;-147.17;100.00;59696.56;5011181;28;51391;-60
2022/02/25 01:13:20;;;;;;;;;1.00;0.00;;;;;-147.17;100.00;59696.56;5009587;28;51057;-60
2022/02/25 01:15:45;;;;;;;;;0.50;0.50;;;;;-147.17;100.00;59696.56;5010406;28;51101;-60
2022/02/25 01:18:11;;;;;;;;;0.00;0.00;;;;;-147.17;100.00;59696.56;5013579;28;51113;-60
2022/02/25 01:20:36;;;;;;;;;1.00;0.50;;;;;-147.17;100.00;59696.56;5013497;28;50997;-60
2022/02/25 01:23:02;;;;;;;;;0.00;0.00;;;;;-147.17;100.00;59696.56;5012281;28;51352;-60
2022/02/25 01:25:27;;;;;;;;;0.75;0.75;;;;;-147.17;100.00;59696.56;5011800;28;51884;-60
2022/02/25 01:27:53;;;;;;;;;1.00;1.00;;;;;-147.17;100.00;59696.56;5008042;28;51187;-60
2022/02/25 01:30:18;;;;;;;;;0.25;0.25;;;;;-147.17;100.00;59696.56;5011189;28;51037;-60
2022/02/25 01:32:44;;;;;;;;;4.00;2.50;;;;;-147.17;100.00;59696.56;5012819;28;50852;-60
2022/02/25 01:35:10;;;;;;;;;1.00;1.00;;;;;-147.17;100.00;59696.56;5010931;28;50977;-60
2022/02/25 01:37:36;;;;;;;;;0.50;0.50;;;;;-147.17;100.00;59696.56;5013223;28;50945;-60
2022/02/25 01:40:03;;;;;;;;;1.25;1.25;;;;;-147.17;100.00;59696.56;5011523;28;51434;-60
2022/02/25 01:42:28;;;;;;;;;0.75;0.75;;;;;-147.17;100.00;59696.56;5008975;28;51406;-60
2022/02/25 01:44:54;;;;;;;;;2.00;2.00;;;;;-147.17;100.00;59696.56;5009833;28;51782;-61
2022/02/25 01:47:19;;;;;;;;;0.00;0.00;;;;;-147.17;100.00;59696.56;5012709;28;51224;-60
2022/02/25 01:49:44;;;;;;;;;1.00;1.00;;;;;-147.17;100.00;59696.56;5012432;28;51673;-60
2022/02/25 01:52:16;;;;;;;;;1.00;1.00;;;;;-147.17;100.00;59696.56;5013237;28;51333;-59
2022/02/25 01:54:46;;;;;;;;;1.75;0.75;;;;;-147.17;100.00;59696.56;5007383;28;51189;-60
2022/02/25 01:57:14;;;;;;;;;1.00;0.75;;;;;-147.17;100.00;59696.56;5005866;28;51077;-60
2022/02/25 01:59:41;;;;;;;;;3.00;2.00;;;;;-147.17;100.00;59696.56;5024308;28;50985;-60
2022/02/25 02:02:07;;;;;;;;;1.00;1.00;;;;;-147.17;100.00;59696.56;5012674;28;51115;-60
2022/02/25 02:04:33;;;;;;;;;2.50;1.75;;;;;-147.17;100.00;59696.56;5008771;28;51175;-60
2022/02/25 02:06:59;;;;;;;;;2.50;1.50;;;;;-147.17;100.00;59696.56;5012348;28;51357;-60
2022/02/25 02:09:25;;;;;;;;;2.00;0.75;;;;;-147.17;100.00;59696.56;5011725;28;51191;-60
2022/02/25 02:11:52;;;;;;;;;0.25;0.00;;;;;-147.17;100.00;59696.56;5011733;28;50895;-60
2022/02/25 02:14:20;;;;;;;;;0.00;0.00;;;;;-147.17;100.00;59696.56;5011513;28;51906;-60
2022/02/25 02:16:49;;;;;;;;;2.75;1.00;;;;;-147.17;100.00;59696.56;5009071;28;51266;-60
2022/02/25 02:19:15;;;;;;;;;1.00;1.00;;;;;-147.17;100.00;59696.56;5015178;28;50969;-60
2022/02/25 02:21:53;;;;;;;;;1.00;1.00;;;;;-147.17;100.00;59696.56;5014072;28;51148;-60
2022/02/25 02:24:21;;;;;;;;;1.75;1.50;;;;;-147.17;100.00;59696.56;5010206;28;52010;-60
2022/02/25 02:26:48;;;;;;;;;3.00;0.00;;;;;-147.17;100.00;59696.56;5012401;28;51107;-60
2022/02/25 02:29:13;;;;;;;;;1.25;1.25;;;;;-147.17;100.00;59696.56;5010378;28;51164;-60
2022/02/25 02:31:40;;;;;;;;;1.00;1.00;;;;;-147.17;100.00;59696.56;5012002;28;51329;-60
2022/02/25 02:34:07;;;;;;;;;0.00;0.00;;;;;-147.17;100.00;59696.56;5005819;28;51231;-60
2022/02/25 02:36:32;;;;;;;;;0.25;0.25;;;;;-147.17;100.00;59696.56;5003991;28;51555;-60
2022/02/25 02:38:57;;;;;;;;;0.50;0.00;;;;;-147.17;100.00;59696.56;5010105;28;51438;-60
2022/02/25 02:41:23;;;;;;;;;1.50;0.00;;;;;-147.17;100.00;59696.56;5012060;28;51231;-60
2022/02/25 02:43:49;;;;;;;;;1.50;1.00;;;;;-147.17;100.00;59696.56;5011436;28;52561;-60
2022/02/25 02:46:15;;;;;;;;;1.75;0.00;;;;;-147.17;100.00;59696.56;5012029;28;50960;-59
2022/02/25 02:48:42;;;;;;;;;1.00;1.00;;;;;-147.17;100.00;59696.56;5011324;28;51262;-60
2022/02/25 02:51:08;;;;;;;;;0.00;0.00;;;;;-147.17;100.00;59696.56;5010146;28;51165;-60
2022/02/25 02:53:34;;;;;;;;;2.25;1.25;;;;;-147.17;100.00;59696.56;5011890;28;52168;-60
2022/02/25 02:55:59;;;;;;;;;2.50;1.00;;;;;-147.17;100.00;59696.56;5010983;28;51238;-60
2022/02/25 02:58:25;;;;;;;;;1.00;1.00;;;;;-147.17;100.00;59696.56;4997471;28;51344;-60
2022/02/25 03:00:52;;;;;;;;;1.00;1.00;;;;;-147.17;100.00;59696.56;5011779;28;50958;-60
2022/02/25 03:03:17;;;;;;;;;0.25;0.25;;;;;-147.17;100.00;59696.56;5011378;28;51168;-60
2022/02/25 03:05:43;;;;;;;;;0.25;0.00;;;;;-147.17;100.00;59696.56;5008198;28;51330;-60
2022/02/25 03:08:09;;;;;;;;;1.00;1.00;;;;;-147.17;100.00;59696.56;5008343;28;51186;-60
2022/02/25 03:10:37;;;;;;;;;1.00;1.00;;;;;-147.17;100.00;59696.56;5011543;28;51260;-60
2022/02/25 03:13:04;;;;;;;;;1.25;1.00;;;;;-147.17;100.00;59696.56;5008600;28;51175;-60
2022/02/25 03:15:30;;;;;;;;;1.00;1.00;;;;;-147.17;100.00;59696.56;5011916;28;50966;-60
2022/02/25 03:17:55;;;;;;;;;1.00;1.00;;;;;-147.17;100.00;59696.56;5014723;28;51285;-60
2022/02/25 03:20:24;;;;;;;;;0.00;0.00;;;;;-147.17;100.00;59696.56;5015562;28;51285;-60
2022/02/25 03:22:50;;;;;;;;;0.00;0.00;;;;;-147.17;100.00;59696.56;5014491;28;51414;-60
2022/02/25 03:25:17;;;;;;;;;1.00;0.00;;;;;-147.17;100.00;59696.56;5015073;28;51040;-59
2022/02/25 03:27:44;;;;;;;;;2.00;0.00;;;;;-147.17;100.00;59696.56;5018064;28;51263;-59
2022/02/25 03:30:10;;;;;;;;;0.00;0.00;;;;;-147.17;100.00;59696.56;5015967;28;51084;-60
2022/02/25 03:32:35;;;;;;;;;0.50;0.50;;;;;-147.17;100.00;59696.56;5014813;28;52404;-59
2022/02/25 03:35:01;;;;;;;;;0.00;0.00;;;;;-147.17;100.00;59696.56;5013873;28;50995;-59
2022/02/25 03:37:29;;;;;;;;;0.00;0.00;;;;;-147.17;100.00;59696.56;5015380;28;50972;-59
2022/02/25 03:39:55;;;;;;;;;1.00;0.00;;;;;-147.17;100.00;59696.56;5013651;28;51204;-60
2022/02/25 03:42:21;;;;;;;;;0.75;0.75;;;;;-147.17;100.00;59696.56;5008056;28;52290;-60
2022/02/25 03:44:47;;;;;;;;;0.00;0.00;;;;;-147.17;100.00;59696.56;5012747;28;51076;-60
2022/02/25 03:47:12;;;;;;;;;1.25;0.25;;;;;-147.17;100.00;59696.56;5014709;28;51117;-60
2022/02/25 03:49:38;;;;;;;;;1.00;1.00;;;;;-147.17;100.00;59696.56;5014818;28;50938;-61
2022/02/25 03:52:04;;;;;;;;;0.00;0.00;;;;;-147.17;100.00;59696.56;5012942;28;51104;-61
2022/02/25 03:54:30;;;;;;;;;0.75;0.75;;;;;-147.17;100.00;59696.56;5013405;28;51082;-59
2022/02/25 03:56:55;;;;;;;;;1.25;0.00;;;;;-147.17;100.00;59696.56;5012602;28;51086;-60
2022/02/25 03:59:21;;;;;;;;;0.00;0.00;;;;;-147.17;100.00;59696.56;5015093;28;50970;-60
2022/02/25 04:01:51;;;;;;;;;0.25;0.25;;;;;-147.17;100.00;59696.56;5013684;28;51176;-60
2022/02/25 04:04:21;;;;;;;;;2.00;0.50;;;;;-147.17;100.00;59696.56;5012478;28;51092;-60
2022/02/25 04:06:47;;;;;;;;;1.00;1.00;;;;;-147.17;100.00;59696.56;5013975;28;51128;-58
2022/02/25 04:09:12;;;;;;;;;1.00;1.00;;;;;-147.17;100.00;59696.56;5014807;28;51104;-59
2022/02/25 04:11:38;;;;;;;;;0.00;0.00;;;;;-147.17;100.00;59696.56;5010501;28;51894;-59
2022/02/25 04:14:04;;;;;;;;;0.00;0.00;;;;;-147.17;100.00;59696.56;5006939;28;51210;-59
2022/02/25 04:16:30;;;;;;;;;0.00;0.00;;;;;-147.17;100.00;59696.56;5014526;28;50962;-58
2022/02/25 04:18:55;;;;;;;;;0.25;0.25;;;;;-147.17;100.00;59696.56;5013708;28;51379;-59
2022/02/25 04:21:21;;;;;;;;;2.00;1.25;;;;;-147.17;100.00;59696.56;5011231;28;52274;-58
2022/02/25 04:23:46;;;;;;;;;0.00;0.00;;;;;-147.17;100.00;59696.56;5014445;28;51051;-60
2022/02/25 04:26:12;;;;;;;;;0.75;0.75;;;;;-147.17;100.00;59696.56;5013174;28;50987;-60
2022/02/25 04:28:37;;;;;;;;;0.75;0.00;;;;;-147.17;100.00;59696.56;5014121;28;50915;-60
2022/02/25 04:31:03;;;;;;;;;0.00;0.00;;;;;-147.17;100.00;59696.56;5009119;28;51923;-59
2022/02/25 04:33:28;;;;;;;;;0.00;0.00;;;;;-147.17;100.00;59696.56;5029232;28;51105;-60
2022/02/25 04:35:53;;;;;;;;;2.00;0.00;;;;;-147.17;100.00;59696.56;5013489;28;51144;-59
2022/02/25 04:38:19;;;;;;;;;1.00;1.00;;;;;-147.17;100.00;59696.56;5015481;28;51250;-59
2022/02/25 04:40:44;;;;;;;;;2.00;0.75;;;;;-147.17;100.00;59696.56;5014206;28;51758;-59
2022/02/25 04:43:10;;;;;;;;;2.50;1.50;;;;;-147.17;100.00;59696.56;5010174;28;51325;-59
2022/02/25 04:45:35;;;;;;;;;1.00;0.00;;;;;-147.17;100.00;59696.56;5013962;28;51006;-58
2022/02/25 04:48:01;;;;;;;;;1.00;0.00;;;;;-147.17;100.00;59696.56;5012780;28;51441;-58
2022/02/25 04:50:26;;;;;;;;;1.00;1.00;;;;;-147.17;100.00;59696.56;5011454;28;51750;-60
2022/02/25 04:52:52;;;;;;;;;1.50;0.00;;;;;-147.17;100.00;59696.56;5011237;28;51139;-60
2022/02/25 04:55:19;;;;;;;;;1.00;0.50;;;;;-147.17;100.00;59696.56;5028996;28;51095;-60
2022/02/25 04:57:46;;;;;;;;;1.00;1.00;;;;;-147.17;100.00;59696.56;5011472;28;51372;-61
2022/02/25 05:00:13;;;;;;;;;1.00;0.50;;;;;-147.17;100.00;59696.56;5012907;28;50994;-60
2022/02/25 05:02:42;;;;;;;;;0.00;0.00;;;;;-147.17;100.00;59696.56;5009174;28;51180;-60
2022/02/25 05:05:08;;;;;;;;;1.00;1.00;;;;;-147.17;100.00;59696.56;4999041;28;51147;-58
2022/02/25 05:07:33;;;;;;;;;1.00;0.00;;;;;-147.17;100.00;59696.56;5012233;28;51305;-59
2022/02/25 05:09:58;;;;;;;;;0.00;0.00;;;;;-147.17;100.00;59696.56;5010289;28;52615;-59
2022/02/25 05:12:24;;;;;;;;;1.00;1.00;;;;;-147.17;100.00;59696.56;5010799;28;51159;-60
2022/02/25 05:20:24;;;;;;;;;0.00;0.00;;;;;-147.17;100.00;59696.56;5011912;28;51204;-60
2022/02/25 05:22:58;;;;;;;;;0.50;0.00;;;;;-147.17;100.00;59696.56;5010462;28;51104;-60
2022/02/25 05:25:25;;;;;;;;;1.25;1.25;;;;;-147.17;100.00;59696.56;5013787;28;51234;-60
2022/02/25 05:27:52;;;;;;;;;1.50;0.75;;;;;-147.17;100.00;59696.56;5012078;28;51447;-60
2022/02/25 05:30:19;;;;;;;;;1.00;1.00;;;;;-147.17;100.00;59696.56;5011202;28;51637;-60
2022/02/25 05:32:46;;;;;;;;;1.00;1.00;;;;;-147.17;100.00;59696.56;5007430;28;51152;-60
2022/02/25 05:35:12;;;;;;;;;0.75;0.00;;;;;-147.17;100.00;59696.56;5013008;28;51159;-60
2022/02/25 05:37:39;;;;;;;;;0.00;0.00;;;;;-147.17;100.00;59696.56;5012644;28;51290;-60
2022/02/25 05:40:07;;;;;;;;;1.00;1.00;;;;;-147.17;100.00;59696.56;5013476;28;52676;-60
2022/02/25 05:42:34;;;;;;;;;2.75;1.25;;;;;-147.17;100.00;59696.56;5010687;28;51081;-60
2022/02/25 05:45:00;;;;;;;;;0.50;0.00;;;;;-147.17;100.00;59696.56;5027664;28;51335;-60
2022/02/25 05:47:26;;;;;;;;;2.00;2.00;;;;;-147.17;100.00;59696.56;5012581;28;50914;-60
2022/02/25 05:49:51;;;;;;;;;1.00;1.00;;;;;-147.17;100.00;59696.56;5011861;28;52265;-60
2022/02/25 05:52:17;;;;;;;;;1.00;0.75;;;;;-147.17;100.00;59696.56;5010517;28;51153;-60
2022/02/25 05:54:42;;;;;;;;;0.00;0.00;;;;;-147.17;100.00;59696.56;5012586;28;50894;-60
2022/02/25 05:57:08;;;;;;;;;0.00;0.00;;;;;-147.17;100.00;59696.56;5011762;28;50918;-60
2022/02/25 05:59:33;;;;;;;;;0.00;0.00;;;;;-147.17;100.00;59696.56;5027388;28;53258;-60
2022/02/25 06:01:59;;;;;;;;;1.00;0.00;;;;;-147.17;100.00;59696.56;5011352;28;51022;-60
2022/02/25 06:04:24;;;;;;;;;1.25;0.00;;;;;-147.17;100.00;59696.56;5011937;28;51443;-60
2022/02/25 06:06:49;;;;;;;;;1.25;0.50;;;;;-147.17;100.00;59696.56;5011877;28;50974;-60
2022/02/25 06:09:15;;;;;;;;;1.25;0.00;;;;;-147.17;100.00;59696.56;5011805;28;52428;-60
2022/02/25 06:11:40;;;;;;;;;2.00;1.75;;;;;-147.17;100.00;59696.56;5009739;28;51142;-60
2022/02/25 06:14:06;;;;;;;;;1.75;1.00;;;;;-147.17;100.00;59696.56;5008935;28;51116;-60
2022/02/25 06:16:31;;;;;;;;;2.00;2.00;;;;;-147.17;100.00;59696.56;5010472;28;51286;-60
2022/02/25 06:18:56;;;;;;;;;3.00;3.00;;;;;-147.17;100.00;59696.56;5011636;28;52217;-60
2022/02/25 06:21:22;;;;;;;;;0.50;0.50;;;;;-147.17;100.00;59696.56;5010510;28;51020;-60
2022/02/25 06:23:47;;;;;;;;;1.00;1.00;;;;;-147.17;100.00;59696.56;5007148;28;51119;-60
2022/02/25 06:26:12;;;;;;;;;2.25;1.00;;;;;-147.17;100.00;59696.56;5008775;28;51240;-60
2022/02/25 06:28:38;;;;;;;;;2.00;1.00;;;;;-147.17;100.00;59696.56;5012350;28;51950;-60
2022/02/25 06:31:04;;;;;;;;;1.00;1.00;;;;;-147.17;100.00;59696.56;5009244;28;51248;-60
2022/02/25 06:33:29;;;;;;;;;1.00;0.25;;;;;-147.17;100.00;59696.56;5012213;28;50958;-60
2022/02/25 06:35:54;;;;;;;;;2.00;2.00;;;;;-147.17;100.00;59696.56;5008810;28;50851;-60
2022/02/25 06:38:20;;;;;;;;;1.00;1.00;;;;;-147.17;100.00;59696.56;5007667;28;52626;-62
2022/02/25 06:40:45;;;;;;;;;1.00;0.00;;;;;-147.17;100.00;59696.56;5010231;28;52913;-59
2022/02/25 06:43:11;;;;;;;;;1.75;1.75;;;;;-147.17;100.00;59696.56;5011130;28;51137;-59
2022/02/25 06:45:36;;;;;;;;;1.00;0.50;;;;;-147.17;100.00;59696.56;5010355;28;51140;-59
2022/02/25 06:48:02;;;;;;;;;1.00;1.00;;;;;-147.17;100.00;59696.56;5008790;28;51111;-59
2022/02/25 06:50:27;;;;;;;;;0.75;0.75;;;;;-147.17;100.00;59696.56;5008398;28;51436;-60
2022/02/25 06:52:53;;;;;;;;;0.50;0.00;;;;;-147.17;100.00;59696.56;5004309;28;53319;-59
2022/02/25 06:55:19;;;;;;;;;1.50;1.00;;;;;-147.17;100.00;59696.56;5003996;28;51188;-59
2022/02/25 06:57:44;;;;;;;;;1.00;1.00;;;;;-147.17;100.00;59696.56;5004448;28;52160;-60
2022/02/25 07:00:21;;;;;;;;;1.00;1.00;;;;;-147.17;100.00;59696.56;5009627;28;50994;-60
2022/02/25 07:02:49;;;;;;;;;2.00;1.25;;;;;-147.17;100.00;59696.56;5009352;28;51082;-59
2022/02/25 07:05:15;;;;;;;;;2.00;2.00;;;;;-147.17;100.00;59696.56;5010001;28;51184;-60
2022/02/25 07:07:41;;;;;;;;;0.00;0.00;;;;;-147.17;100.00;59696.56;5003191;28;51378;-61
2022/02/25 07:10:07;;;;;;;;;0.25;0.00;;;;;-147.17;100.00;59696.56;5010677;28;51029;-60
2022/02/25 07:12:32;;;;;;;;;0.50;0.50;;;;;-147.17;100.00;59696.56;5009451;28;51054;-60
2022/02/25 07:14:58;;;;;;;;;0.75;0.75;;;;;-147.17;100.00;59696.56;5005838;28;51064;-60
2022/02/25 07:17:23;;;;;;;;;2.00;1.00;;;;;-147.17;100.00;59696.56;5009381;28;52052;-61
2022/02/25 07:19:49;;;;;;;;;1.00;1.00;;;;;-147.17;100.00;59696.56;5010454;28;50950;-60
2022/02/25 07:22:14;;;;;;;;;0.25;0.25;;;;;-147.17;100.00;59696.56;5004914;28;51137;-61
2022/02/25 07:24:40;;;;;;;;;0.50;0.00;;;;;-147.17;100.00;59696.56;4999601;28;51525;-61
2022/02/25 07:27:07;;;;;;;;;1.00;1.00;;;;;-147.17;100.00;59696.56;5006438;28;52407;-58
2022/02/25 07:29:32;;;;;;;;;1.00;0.50;;;;;-147.17;100.00;59696.56;5009683;28;51177;-65
2022/02/25 07:31:58;;;;;;;;;1.00;1.00;;;;;-147.17;100.00;59696.56;5007578;28;51170;-61
2022/02/25 07:34:24;;;;;;;;;1.75;1.75;;;;;-147.17;100.00;59696.56;5010083;28;51300;-61
2022/02/25 07:36:49;;;;;;;;;1.25;1.25;;;;;-147.17;100.00;59696.56;5007035;28;51129;-61
2022/02/25 07:39:15;;;;;;;;;4.00;1.50;;;;;-147.17;100.00;59696.56;5009381;28;51137;-61
2022/02/25 07:41:41;;;;;;;;;3.00;2.00;;;;;-147.17;100.00;59696.56;5007304;28;51251;-60
2022/02/25 07:44:07;;;;;;;;;0.25;0.00;;;;;-147.17;100.00;59696.56;5010007;28;51252;-61
2022/02/25 07:46:32;;;;;;;;;2.75;1.50;;;;;-147.17;100.00;59696.56;5007562;28;51104;-61
2022/02/25 07:48:58;;;;;;;;;5.25;4.25;;;;;-147.17;100.00;59696.56;5008244;28;51085;-60
2022/02/25 07:51:26;;;;;;;;;1.50;1.25;;;;;-147.17;100.00;59696.56;5007803;28;51093;-60
2022/02/25 07:53:52;;;;;;;;;5.00;2.50;;;;;-147.17;100.00;59696.56;5007101;28;51062;-61
2022/02/25 07:56:18;;;;;;;;;2.00;1.75;;;;;-147.17;100.00;59696.56;5007149;28;53284;-61
2022/02/25 07:58:44;;;;;;;;;2.00;1.00;;;;;-147.17;100.00;59696.56;5006405;28;51164;-61
2022/02/25 08:01:10;;;;;;;;;3.25;1.75;;;;;-147.17;100.00;59696.56;5009610;28;50943;-61
2022/02/25 08:03:36;;;;;;;;;2.25;2.25;;;;;-147.17;100.00;59696.56;5031346;28;51385;-61
2022/02/25 08:06:01;;;;;;;;;2.25;1.25;;;;;-147.17;100.00;59696.56;5011425;28;51116;-62
2022/02/25 08:08:26;;;;;;;;;1.75;1.00;;;;;-147.17;100.00;59696.56;5008938;28;51542;-60
2022/02/25 08:10:52;;;;;;;;;2.00;2.00;;;;;-147.17;100.00;59696.56;5011656;28;51146;-61
2022/02/25 08:13:17;;;;;;;;;3.00;2.00;;;;;-147.17;100.00;59696.56;5012650;28;51462;-61
2022/02/25 08:15:43;;;;;;;;;3.00;1.25;;;;;-147.17;100.00;59696.56;5012149;28;52030;-61
2022/02/25 08:18:09;;;;;;;;;3.75;3.75;;;;;-147.17;100.00;59696.56;5011333;28;51291;-60
2022/02/25 08:20:36;;;;;;;;;2.00;2.00;;;;;-147.17;100.00;59696.56;5004354;28;51110;-59
2022/02/25 08:23:02;;;;;;;;;4.25;3.00;;;;;-147.17;100.00;59696.56;5024706;28;51014;-58
2022/02/25 08:25:29;;;;;;;;;2.67;2.00;;;;;-147.17;100.00;59696.56;5012387;28;51903;-58
2022/02/25 08:27:55;;;;;;;;;4.33;3.00;;;;;-147.17;100.00;59696.56;5007274;28;51333;-58
2022/02/25 08:30:20;;;;;;;;;3.00;2.33;;;;;-147.17;100.00;59696.56;5013421;28;51048;-59
2022/02/25 08:32:48;;;;;;;;;2.00;2.00;;;;;-147.17;100.00;59696.56;5010572;28;51283;-59
2022/02/25 08:35:15;;;;;;;;;4.33;4.00;;;;;-147.17;100.00;59696.56;5010198;28;52188;-58
2022/02/25 08:37:41;;;;;;;;;12.00;10.67;;;;;-147.17;100.00;59696.56;5009198;28;52358;-57
2022/02/25 08:40:08;;;;;;;;;4.67;3.00;;;;;-147.17;100.00;59696.56;5011631;28;51224;-59
2022/02/25 08:42:35;;;;;;;;;3.00;3.00;;;;;-147.17;100.00;59696.56;5010714;28;51085;-59
2022/02/25 08:45:05;;;;;;;;;3.00;3.00;;;;;-147.17;100.00;59696.56;5010458;28;51175;-61
2022/02/25 08:47:31;;;;;;;;;5.33;4.67;;;;;-147.17;100.00;59696.56;5012080;28;51266;-59
2022/02/25 08:49:56;;;;;;;;;5.00;3.00;;;;;-147.17;100.00;59696.56;5012220;28;51041;-59
2022/02/25 08:52:23;;;;;;;;;3.00;3.00;;;;;-147.17;100.00;59696.56;5013254;28;51422;-60
2022/02/25 08:54:50;;;;;;;;;2.00;2.00;;;;;-147.17;100.00;59696.56;5025679;28;53232;-59
2022/02/25 08:57:16;;;;;;;;;3.33;3.00;;;;;-147.17;100.00;59696.56;5006819;28;51201;-59
2022/02/25 08:59:42;;;;;;;;;2.00;2.00;;;;;-147.17;100.00;59696.56;5010218;28;51014;-60
2022/02/25 09:02:08;;;;;;;;;2.67;2.67;;;;;-147.17;100.00;59696.56;5033012;28;50949;-59
2022/02/25 09:04:34;;;;;;;;;4.67;4.67;;;;;-147.17;100.00;59696.56;5014904;28;51878;-60
2022/02/25 09:07:00;;;;;;;;;2.00;2.00;;;;;-147.17;100.00;59696.56;5013680;28;51066;-60
2022/02/25 09:09:25;;;;;;;;;3.67;2.67;;;;;-147.17;100.00;59696.56;5013639;28;51474;-60
2022/02/25 09:11:51;;;;;;;;;2.67;2.00;;;;;-147.17;100.00;59696.56;5013540;28;51100;-59
2022/02/25 09:14:17;;;;;;;;;1.00;1.00;;;;;-147.17;100.00;59696.56;5012063;28;51904;-60
2022/02/25 09:16:43;;;;;;;;;3.00;2.67;;;;;-147.17;100.00;59696.56;5011309;28;51532;-59
2022/02/25 09:19:09;;;;;;;;;3.67;2.00;;;;;-147.17;100.00;59696.56;5012315;28;51301;-59
2022/02/25 09:21:35;;;;;;;;;4.00;3.00;;;;;-147.17;100.00;59696.56;5009687;28;51200;-59
2022/02/25 09:24:00;;;;;;;;;5.00;4.00;;;;;-147.17;100.00;59696.56;5011681;28;52007;-59
2022/02/25 09:26:27;;;;;;;;;4.00;4.00;;;;;-147.17;100.00;59696.56;5011255;28;50979;-59
2022/02/25 09:28:52;;;;;;;;;2.00;2.00;;;;;-147.17;100.00;59696.56;5012048;28;50916;-59
2022/02/25 09:31:18;;;;;;;;;3.67;3.33;;;;;-147.17;100.00;59696.56;5012071;28;51341;-59
2022/02/25 09:33:43;;;;;;;;;3.67;2.33;;;;;-147.17;100.00;59696.56;5012727;28;51796;-59
2022/02/25 09:36:09;;;;;;;;;2.00;2.00;;;;;-147.17;100.00;59696.56;5011153;28;51231;-59
2022/02/25 09:38:35;;;;;;;;;5.67;5.33;;;;;-147.17;100.00;59696.56;5007216;28;51038;-59
2022/02/25 09:41:01;;;;;;;;;5.33;4.67;;;;;-147.17;100.00;59696.56;5011178;28;51363;-59
2022/02/25 09:43:29;;;;;;;;;5.67;4.00;;;;;-147.17;100.00;59696.56;5011558;28;51897;-61
2022/02/25 09:45:54;;;;;;;;;5.00;4.00;;;;;-147.17;100.00;59696.56;5012657;28;51147;-59
2022/02/25 09:48:20;;;;;;;;;11.00;10.67;;;;;-147.17;100.00;59696.56;5012387;28;51013;-59
2022/02/25 09:50:48;;;;;;;;;4.67;4.33;;;;;-147.17;100.00;59696.56;5012680;28;51182;-59
2022/02/25 09:53:14;;;;;;;;;2.00;2.00;;;;;-147.17;100.00;59696.56;5012342;28;52192;-58
2022/02/25 09:55:40;;;;;;;;;2.00;2.00;;;;;-147.17;100.00;59696.56;5012351;28;51096;-60
2022/02/25 09:58:07;;;;;;;;;7.00;6.67;;;;;-147.17;100.00;59696.56;5016014;28;51133;-59
2022/02/25 10:00:34;;;;;;;;;4.00;4.00;;;;;-147.17;100.00;59696.56;5010851;28;51011;-58
2022/02/25 10:03:06;;;;;;;;;4.67;4.00;;;;;-147.17;100.00;59696.56;5010437;28;51873;-58
2022/02/25 10:05:34;;;;;;;;;5.67;4.00;;;;;-147.17;100.00;59696.56;5010637;28;51021;-61
2022/02/25 10:08:10;;;;;;;;;4.67;3.67;;;;;-147.17;100.00;59696.56;5012414;28;51005;-60
2022/02/25 10:10:56;;;;;;;;;8.33;6.00;;;;;-147.17;100.00;59696.56;5012999;28;51173;-60
2022/02/25 10:13:24;;;;;;;;;4.00;3.33;;;;;-147.17;100.00;59696.56;5012373;28;51756;-59
2022/02/25 10:15:54;;;;;;;;;3.67;2.67;;;;;-147.17;100.00;59696.56;5012560;28;51104;-59
2022/02/25 10:18:28;;;;;;;;;3.67;2.00;;;;;-147.17;100.00;59696.56;5012765;28;51106;-60
2022/02/25 10:21:01;;;;;;;;;2.33;2.00;;;;;-147.17;100.00;59696.56;5010746;28;51379;-60
2022/02/25 10:23:33;;;;;;;;;3.00;2.67;;;;;-147.17;100.00;59696.56;4994031;28;53806;-60
2022/02/25 10:26:13;;;;;;;;;6.00;5.33;;;;;-147.17;100.00;59696.56;5002070;28;51231;-60
2022/02/25 10:28:45;;;;;;;;;9.67;6.67;;;;;-147.17;100.00;59696.56;5011914;28;51018;-64
2022/02/25 10:31:25;;;;;;;;;5.67;2.67;;;;;-147.17;100.00;59696.56;5010778;28;51339;-60
2022/02/25 10:34:13;;;;;;;;;3.33;3.00;;;;;-147.17;100.00;59696.56;5016953;28;51042;-60
2022/02/25 10:36:49;;;;;;;;;4.33;3.67;;;;;-147.17;100.00;59696.56;5009836;28;50996;-64
2022/02/25 10:39:21;;;;;;;;;2.33;2.00;;;;;-147.17;100.00;59696.56;5007298;28;51232;-60
2022/02/25 10:42:07;;;;;;;;;4.67;4.33;;;;;-147.17;100.00;59696.56;5002789;28;51182;-59
2022/02/25 10:44:47;;;;;;;;;2.33;2.33;;;;;-147.17;100.00;59696.56;5008629;28;52448;-59
2022/02/25 10:47:26;;;;;;;;;6.33;5.33;;;;;-147.17;100.00;59696.56;5010080;28;51025;-59
2022/02/25 10:50:03;;;;;;;;;4.00;3.00;;;;;-147.17;100.00;59696.56;5011768;28;50939;-59
2022/02/25 10:52:31;;;;;;;;;3.00;1.67;;;;;-147.17;100.00;59696.56;5008016;28;51151;-60
2022/02/25 10:54:57;;;;;;;;;3.00;3.00;;;;;-147.17;100.00;59696.56;5009713;28;51778;-61
2022/02/25 10:57:25;;;;;;;;;5.00;4.00;;;;;-147.17;100.00;59696.56;5009209;28;51194;-59
2022/02/25 10:59:50;;;;;;;;;4.67;2.33;;;;;-147.17;100.00;59696.56;5011047;28;50959;-59
2022/02/25 11:02:36;;;;;;;;;4.00;3.00;;;;;-147.17;100.00;59696.56;5007239;28;51433;-59
2022/02/25 11:05:08;;;;;;;;;7.67;6.00;;;;;-147.17;100.00;59696.56;5010266;28;52287;-60
2022/02/25 11:07:36;;;;;;;;;5.33;5.00;;;;;-147.17;100.00;59696.56;5001466;28;51327;-60
2022/02/25 11:10:04;;;;;;;;;4.33;3.67;;;;;-147.17;100.00;59696.56;5007217;28;51495;-60
2022/02/25 11:12:29;;;;;;;;;4.00;3.67;;;;;-147.17;100.00;59696.56;5008950;28;51050;-59